sensor_id;sensor_type;location;lat;lon;timestamp;pressure;altitude;pressure_sealevel;temperature;humidity
8641;BME280;4358;42.100;25.222;2023-03-05T00:01:52;99709.78;;;4.55;100.00
8641;BME280;4358;42.100;25.222;2023-03-05T00:04:20;99702.53;;;4.60;100.00
8641;BME280;4358;42.100;25.222;2023-03-05T00:06:48;99704.38;;;4.58;100.00
8641;BME280;4358;42.100;25.222;2023-03-05T00:09:15;99715.47;;;4.64;100.00
8641;BME280;4358;42.100;25.222;2023-03-05T00:11:42;99710.75;;;4.52;100.00
8641;BME280;4358;42.100;25.222;2023-03-05T00:14:10;99709.91;;;4.52;100.00
8641;BME280;4358;42.100;25.222;2023-03-05T00:16:37;99703.66;;;4.54;100.00
8641;BME280;4358;42.100;25.222;2023-03-05T00:19:04;99704.50;;;4.36;100.00
8641;BME280;4358;42.100;25.222;2023-03-05T00:21:33;99706.81;;;4.03;100.00
8641;BME280;4358;42.100;25.222;2023-03-05T00:24:02;99696.28;;;3.84;100.00
8641;BME280;4358;42.100;25.222;2023-03-05T00:26:30;99689.25;;;3.65;100.00
8641;BME280;4358;42.100;25.222;2023-03-05T00:28:58;99680.19;;;3.72;100.00
8641;BME280;4358;42.100;25.222;2023-03-05T00:31:27;99681.22;;;3.88;100.00
8641;BME280;4358;42.100;25.222;2023-03-05T00:33:56;99677.88;;;3.84;100.00
8641;BME280;4358;42.100;25.222;2023-03-05T00:36:24;99677.56;;;3.92;100.00
8641;BME280;4358;42.100;25.222;2023-03-05T00:38:52;99680.56;;;4.03;100.00
8641;BME280;4358;42.100;25.222;2023-03-05T00:41:19;99673.63;;;4.02;100.00
8641;BME280;4358;42.100;25.222;2023-03-05T00:43:47;99675.19;;;4.06;100.00
8641;BME280;4358;42.100;25.222;2023-03-05T00:46:14;99675.97;;;3.88;100.00
8641;BME280;4358;42.100;25.222;2023-03-05T00:48:41;99666.50;;;4.04;100.00
8641;BME280;4358;42.100;25.222;2023-03-05T00:51:07;99669.22;;;4.03;100.00
8641;BME280;4358;42.100;25.222;2023-03-05T00:53:34;99669.94;;;4.06;100.00
8641;BME280;4358;42.100;25.222;2023-03-05T00:56:03;99671.91;;;4.01;100.00
8641;BME280;4358;42.100;25.222;2023-03-05T00:58:30;99672.03;;;3.98;100.00
8641;BME280;4358;42.100;25.222;2023-03-05T01:00:58;99662.00;;;4.08;100.00
8641;BME280;4358;42.100;25.222;2023-03-05T01:03:25;99672.41;;;4.09;100.00
8641;BME280;4358;42.100;25.222;2023-03-05T01:05:52;99671.97;;;4.00;100.00
8641;BME280;4358;42.100;25.222;2023-03-05T01:08:19;99679.56;;;3.87;100.00
8641;BME280;4358;42.100;25.222;2023-03-05T01:10:46;99677.94;;;3.83;100.00
8641;BME280;4358;42.100;25.222;2023-03-05T01:13:15;99678.34;;;3.74;100.00
8641;BME280;4358;42.100;25.222;2023-03-05T01:15:42;99671.13;;;3.79;100.00
8641;BME280;4358;42.100;25.222;2023-03-05T01:18:09;99677.84;;;3.86;100.00
8641;BME280;4358;42.100;25.222;2023-03-05T01:20:35;99680.56;;;3.83;100.00
8641;BME280;4358;42.100;25.222;2023-03-05T01:23:02;99674.84;;;3.94;100.00
8641;BME280;4358;42.100;25.222;2023-03-05T01:25:29;99670.66;;;3.90;100.00
8641;BME280;4358;42.100;25.222;2023-03-05T01:27:56;99667.78;;;3.96;100.00
8641;BME280;4358;42.100;25.222;2023-03-05T01:30:24;99658.91;;;4.18;100.00
8641;BME280;4358;42.100;25.222;2023-03-05T01:32:51;99662.88;;;4.27;100.00
8641;BME280;4358;42.100;25.222;2023-03-05T01:35:19;99662.16;;;4.23;100.00
8641;BME280;4358;42.100;25.222;2023-03-05T01:37:47;99659.28;;;4.09;100.00
8641;BME280;4358;42.100;25.222;2023-03-05T01:40:17;99657.50;;;3.71;100.00
8641;BME280;4358;42.100;25.222;2023-03-05T01:42:44;99664.97;;;3.60;100.00
8641;BME280;4358;42.100;25.222;2023-03-05T01:45:15;99646.72;;;3.57;100.00
8641;BME280;4358;42.100;25.222;2023-03-05T01:47:44;99652.97;;;3.74;100.00
8641;BME280;4358;42.100;25.222;2023-03-05T01:50:13;99643.75;;;3.84;100.00
8641;BME280;4358;42.100;25.222;2023-03-05T01:52:44;99652.22;;;3.91;100.00
8641;BME280;4358;42.100;25.222;2023-03-05T01:55:14;99645.69;;;3.81;100.00
8641;BME280;4358;42.100;25.222;2023-03-05T01:57:45;99648.22;;;3.82;100.00
8641;BME280;4358;42.100;25.222;2023-03-05T02:00:16;99655.53;;;3.76;100.00
8641;BME280;4358;42.100;25.222;2023-03-05T02:02:47;99656.03;;;3.64;100.00
8641;BME280;4358;42.100;25.222;2023-03-05T02:05:18;99656.56;;;3.52;100.00
8641;BME280;4358;42.100;25.222;2023-03-05T02:07:52;99657.50;;;3.51;100.00
8641;BME280;4358;42.100;25.222;2023-03-05T02:10:22;99665.38;;;3.51;100.00
8641;BME280;4358;42.100;25.222;2023-03-05T02:12:51;99662.34;;;3.60;100.00
8641;BME280;4358;42.100;25.222;2023-03-05T02:15:18;99659.59;;;3.63;100.00
8641;BME280;4358;42.100;25.222;2023-03-05T02:17:47;99650.94;;;3.61;100.00
8641;BME280;4358;42.100;25.222;2023-03-05T02:20:17;99654.47;;;3.39;100.00
8641;BME280;4358;42.100;25.222;2023-03-05T02:22:45;99658.88;;;2.95;100.00
8641;BME280;4358;42.100;25.222;2023-03-05T02:25:14;99643.97;;;2.76;100.00
8641;BME280;4358;42.100;25.222;2023-03-05T02:27:43;99656.88;;;3.02;100.00
8641;BME280;4358;42.100;25.222;2023-03-05T02:30:13;99658.69;;;3.00;100.00
8641;BME280;4358;42.100;25.222;2023-03-05T02:32:39;99657.84;;;2.78;100.00
8641;BME280;4358;42.100;25.222;2023-03-05T02:35:07;99651.25;;;2.68;100.00
8641;BME280;4358;42.100;25.222;2023-03-05T02:37:34;99634.34;;;2.76;100.00
8641;BME280;4358;42.100;25.222;2023-03-05T02:40:02;99650.41;;;2.89;100.00
8641;BME280;4358;42.100;25.222;2023-03-05T02:42:29;99646.94;;;2.88;100.00
8641;BME280;4358;42.100;25.222;2023-03-05T02:44:58;99640.06;;;2.86;100.00
8641;BME280;4358;42.100;25.222;2023-03-05T02:47:25;99647.25;;;2.81;100.00
8641;BME280;4358;42.100;25.222;2023-03-05T02:49:52;99624.31;;;2.64;100.00
8641;BME280;4358;42.100;25.222;2023-03-05T02:52:20;99634.94;;;2.61;100.00
8641;BME280;4358;42.100;25.222;2023-03-05T02:54:47;99632.22;;;2.63;100.00
8641;BME280;4358;42.100;25.222;2023-03-05T02:57:16;99630.09;;;2.72;100.00
8641;BME280;4358;42.100;25.222;2023-03-05T02:59:43;99639.69;;;2.73;100.00
8641;BME280;4358;42.100;25.222;2023-03-05T03:02:10;99639.09;;;2.67;100.00
8641;BME280;4358;42.100;25.222;2023-03-05T03:04:36;99649.56;;;2.67;100.00
8641;BME280;4358;42.100;25.222;2023-03-05T03:07:03;99652.59;;;2.78;100.00
8641;BME280;4358;42.100;25.222;2023-03-05T03:09:32;99645.28;;;2.86;100.00
8641;BME280;4358;42.100;25.222;2023-03-05T03:11:59;99647.31;;;3.01;100.00
8641;BME280;4358;42.100;25.222;2023-03-05T03:14:30;99648.09;;;3.03;100.00
8641;BME280;4358;42.100;25.222;2023-03-05T03:16:57;99644.69;;;3.01;100.00
8641;BME280;4358;42.100;25.222;2023-03-05T03:19:24;99646.16;;;3.08;100.00
8641;BME280;4358;42.100;25.222;2023-03-05T03:21:51;99651.00;;;3.17;100.00
8641;BME280;4358;42.100;25.222;2023-03-05T03:24:19;99648.91;;;3.25;100.00
8641;BME280;4358;42.100;25.222;2023-03-05T03:26:47;99641.72;;;3.30;100.00
8641;BME280;4358;42.100;25.222;2023-03-05T03:29:14;99647.38;;;3.41;100.00
8641;BME280;4358;42.100;25.222;2023-03-05T03:31:43;99643.59;;;3.49;100.00
8641;BME280;4358;42.100;25.222;2023-03-05T03:34:10;99636.63;;;3.48;100.00
8641;BME280;4358;42.100;25.222;2023-03-05T03:36:37;99639.13;;;3.51;100.00
8641;BME280;4358;42.100;25.222;2023-03-05T03:39:04;99638.94;;;3.55;100.00
8641;BME280;4358;42.100;25.222;2023-03-05T03:41:34;99637.53;;;3.47;100.00
8641;BME280;4358;42.100;25.222;2023-03-05T03:44:01;99642.53;;;3.53;100.00
8641;BME280;4358;42.100;25.222;2023-03-05T03:46:29;99633.59;;;3.57;100.00
8641;BME280;4358;42.100;25.222;2023-03-05T03:48:57;99636.88;;;3.62;100.00
8641;BME280;4358;42.100;25.222;2023-03-05T03:51:24;99629.75;;;3.65;100.00
8641;BME280;4358;42.100;25.222;2023-03-05T03:53:51;99632.94;;;3.72;100.00
8641;BME280;4358;42.100;25.222;2023-03-05T03:56:18;99629.53;;;3.70;100.00
8641;BME280;4358;42.100;25.222;2023-03-05T03:58:45;99629.41;;;3.73;100.00
8641;BME280;4358;42.100;25.222;2023-03-05T04:01:11;99640.69;;;3.75;100.00
8641;BME280;4358;42.100;25.222;2023-03-05T04:03:38;99632.81;;;3.75;100.00
8641;BME280;4358;42.100;25.222;2023-03-05T04:06:07;99630.84;;;3.80;100.00
8641;BME280;4358;42.100;25.222;2023-03-05T04:08:33;99608.66;;;3.67;100.00
8641;BME280;4358;42.100;25.222;2023-03-05T04:11:01;99622.97;;;3.80;100.00
8641;BME280;4358;42.100;25.222;2023-03-05T04:13:27;99627.03;;;3.87;100.00
8641;BME280;4358;42.100;25.222;2023-03-05T04:15:54;99630.31;;;3.92;100.00
8641;BME280;4358;42.100;25.222;2023-03-05T04:18:22;99620.19;;;3.83;100.00
8641;BME280;4358;42.100;25.222;2023-03-05T04:20:48;99631.03;;;3.96;100.00
8641;BME280;4358;42.100;25.222;2023-03-05T04:23:17;99628.19;;;4.00;100.00
8641;BME280;4358;42.100;25.222;2023-03-05T04:25:43;99632.16;;;3.90;100.00
8641;BME280;4358;42.100;25.222;2023-03-05T04:28:10;99629.66;;;3.87;100.00
8641;BME280;4358;42.100;25.222;2023-03-05T04:30:37;99630.44;;;3.89;100.00
8641;BME280;4358;42.100;25.222;2023-03-05T04:33:04;99630.00;;;3.79;100.00
8641;BME280;4358;42.100;25.222;2023-03-05T04:35:31;99634.00;;;3.48;100.00
8641;BME280;4358;42.100;25.222;2023-03-05T04:37:58;99644.44;;;3.07;100.00
8641;BME280;4358;42.100;25.222;2023-03-05T04:40:26;99634.56;;;2.92;100.00
8641;BME280;4358;42.100;25.222;2023-03-05T04:42:53;99624.09;;;2.92;100.00
8641;BME280;4358;42.100;25.222;2023-03-05T04:45:20;99629.75;;;3.03;100.00
8641;BME280;4358;42.100;25.222;2023-03-05T04:47:47;99618.94;;;3.11;100.00
8641;BME280;4358;42.100;25.222;2023-03-05T04:50:14;99614.69;;;3.08;100.00
8641;BME280;4358;42.100;25.222;2023-03-05T04:52:42;99624.75;;;3.19;100.00
8641;BME280;4358;42.100;25.222;2023-03-05T04:55:12;99632.47;;;3.22;100.00
8641;BME280;4358;42.100;25.222;2023-03-05T04:57:40;99634.13;;;3.24;100.00
8641;BME280;4358;42.100;25.222;2023-03-05T05:00:10;99638.56;;;3.22;100.00
8641;BME280;4358;42.100;25.222;2023-03-05T05:02:39;99638.50;;;3.24;100.00
8641;BME280;4358;42.100;25.222;2023-03-05T05:05:06;99634.78;;;3.29;100.00
8641;BME280;4358;42.100;25.222;2023-03-05T05:07:33;99639.75;;;3.35;100.00
8641;BME280;4358;42.100;25.222;2023-03-05T05:09:59;99633.47;;;3.39;100.00
8641;BME280;4358;42.100;25.222;2023-03-05T05:12:27;99618.19;;;3.29;100.00
8641;BME280;4358;42.100;25.222;2023-03-05T05:14:56;99650.59;;;3.48;100.00
8641;BME280;4358;42.100;25.222;2023-03-05T05:17:24;99659.97;;;3.54;100.00
8641;BME280;4358;42.100;25.222;2023-03-05T05:19:52;99659.97;;;3.54;100.00
8641;BME280;4358;42.100;25.222;2023-03-05T05:22:19;99665.09;;;3.57;100.00
8641;BME280;4358;42.100;25.222;2023-03-05T05:24:46;99662.44;;;3.36;100.00
8641;BME280;4358;42.100;25.222;2023-03-05T05:27:13;99659.06;;;3.34;100.00
8641;BME280;4358;42.100;25.222;2023-03-05T05:29:39;99667.06;;;3.30;100.00
8641;BME280;4358;42.100;25.222;2023-03-05T05:32:08;99659.88;;;3.35;100.00
8641;BME280;4358;42.100;25.222;2023-03-05T05:34:35;99660.63;;;3.38;100.00
8641;BME280;4358;42.100;25.222;2023-03-05T05:37:01;99663.06;;;3.43;100.00
8641;BME280;4358;42.100;25.222;2023-03-05T05:39:28;99672.47;;;3.27;100.00
8641;BME280;4358;42.100;25.222;2023-03-05T05:41:55;99674.66;;;3.16;100.00
8641;BME280;4358;42.100;25.222;2023-03-05T05:44:22;99674.63;;;3.17;100.00
8641;BME280;4358;42.100;25.222;2023-03-05T05:46:49;99677.75;;;3.25;100.00
8641;BME280;4358;42.100;25.222;2023-03-05T05:49:17;99676.66;;;3.31;100.00
8641;BME280;4358;42.100;25.222;2023-03-05T05:51:44;99679.22;;;3.32;100.00
8641;BME280;4358;42.100;25.222;2023-03-05T05:54:11;99680.75;;;3.38;100.00
8641;BME280;4358;42.100;25.222;2023-03-05T05:56:38;99678.75;;;3.45;100.00
8641;BME280;4358;42.100;25.222;2023-03-05T05:59:06;99675.97;;;3.48;100.00
8641;BME280;4358;42.100;25.222;2023-03-05T06:01:34;99675.50;;;3.38;100.00
8641;BME280;4358;42.100;25.222;2023-03-05T06:04:01;99684.66;;;3.50;100.00
8641;BME280;4358;42.100;25.222;2023-03-05T06:06:29;99685.41;;;3.52;100.00
8641;BME280;4358;42.100;25.222;2023-03-05T06:08:58;99690.00;;;3.47;100.00
8641;BME280;4358;42.100;25.222;2023-03-05T06:11:25;99693.38;;;3.50;100.00
8641;BME280;4358;42.100;25.222;2023-03-05T06:13:52;99693.03;;;3.58;100.00
8641;BME280;4358;42.100;25.222;2023-03-05T06:16:21;99677.78;;;3.46;100.00
8641;BME280;4358;42.100;25.222;2023-03-05T06:18:49;99677.75;;;3.67;100.00
8641;BME280;4358;42.100;25.222;2023-03-05T06:21:18;99665.63;;;3.85;100.00
8641;BME280;4358;42.100;25.222;2023-03-05T06:23:47;99677.00;;;4.04;100.00
8641;BME280;4358;42.100;25.222;2023-03-05T06:26:16;99687.09;;;4.34;100.00
8641;BME280;4358;42.100;25.222;2023-03-05T06:28:43;99690.44;;;4.56;100.00
8641;BME280;4358;42.100;25.222;2023-03-05T06:31:12;99687.63;;;4.79;100.00
8641;BME280;4358;42.100;25.222;2023-03-05T06:33:41;99685.06;;;4.96;100.00
8641;BME280;4358;42.100;25.222;2023-03-05T06:36:09;99686.09;;;5.11;100.00
8641;BME280;4358;42.100;25.222;2023-03-05T06:38:36;99692.53;;;5.23;100.00
8641;BME280;4358;42.100;25.222;2023-03-05T06:41:07;99693.63;;;5.36;100.00
8641;BME280;4358;42.100;25.222;2023-03-05T06:43:36;99687.78;;;5.48;100.00
8641;BME280;4358;42.100;25.222;2023-03-05T06:46:05;99683.75;;;5.58;100.00
8641;BME280;4358;42.100;25.222;2023-03-05T06:48:33;99686.53;;;5.72;100.00
8641;BME280;4358;42.100;25.222;2023-03-05T06:51:00;99690.75;;;5.93;100.00
8641;BME280;4358;42.100;25.222;2023-03-05T06:53:27;99686.22;;;6.13;100.00
8641;BME280;4358;42.100;25.222;2023-03-05T06:55:54;99686.44;;;6.25;100.00
8641;BME280;4358;42.100;25.222;2023-03-05T06:58:22;99694.81;;;6.49;100.00
8641;BME280;4358;42.100;25.222;2023-03-05T07:00:49;99693.16;;;6.64;100.00
8641;BME280;4358;42.100;25.222;2023-03-05T07:03:16;99696.56;;;6.81;100.00
8641;BME280;4358;42.100;25.222;2023-03-05T07:05:43;99692.16;;;6.98;100.00
8641;BME280;4358;42.100;25.222;2023-03-05T07:08:10;99685.75;;;7.02;100.00
8641;BME280;4358;42.100;25.222;2023-03-05T07:10:38;99682.69;;;7.25;100.00
8641;BME280;4358;42.100;25.222;2023-03-05T07:13:06;99686.91;;;7.43;100.00
8641;BME280;4358;42.100;25.222;2023-03-05T07:15:37;99685.09;;;7.59;100.00
8641;BME280;4358;42.100;25.222;2023-03-05T07:18:05;99688.53;;;7.76;100.00
8641;BME280;4358;42.100;25.222;2023-03-05T07:20:33;99689.75;;;8.00;100.00
8641;BME280;4358;42.100;25.222;2023-03-05T07:23:00;99690.41;;;8.18;100.00
8641;BME280;4358;42.100;25.222;2023-03-05T07:25:27;99687.56;;;8.36;100.00
8641;BME280;4358;42.100;25.222;2023-03-05T07:27:54;99688.00;;;8.43;100.00
8641;BME280;4358;42.100;25.222;2023-03-05T07:30:20;99689.34;;;8.50;100.00
8641;BME280;4358;42.100;25.222;2023-03-05T07:32:49;99674.31;;;8.50;100.00
8641;BME280;4358;42.100;25.222;2023-03-05T07:35:16;99668.66;;;8.57;100.00
8641;BME280;4358;42.100;25.222;2023-03-05T07:37:43;99675.25;;;8.64;100.00
8641;BME280;4358;42.100;25.222;2023-03-05T07:40:10;99672.13;;;8.71;100.00
8641;BME280;4358;42.100;25.222;2023-03-05T07:42:37;99665.41;;;8.80;100.00
8641;BME280;4358;42.100;25.222;2023-03-05T07:45:05;99659.88;;;8.97;100.00
8641;BME280;4358;42.100;25.222;2023-03-05T07:47:32;99657.56;;;9.19;100.00
8641;BME280;4358;42.100;25.222;2023-03-05T07:50:01;99653.50;;;9.41;100.00
8641;BME280;4358;42.100;25.222;2023-03-05T07:52:28;99655.13;;;9.56;100.00
8641;BME280;4358;42.100;25.222;2023-03-05T07:54:54;99646.47;;;9.66;100.00
8641;BME280;4358;42.100;25.222;2023-03-05T07:57:21;99638.44;;;9.68;100.00
8641;BME280;4358;42.100;25.222;2023-03-05T07:59:48;99632.88;;;9.58;100.00
8641;BME280;4358;42.100;25.222;2023-03-05T08:02:15;99627.47;;;9.60;100.00
8641;BME280;4358;42.100;25.222;2023-03-05T08:04:44;99631.41;;;9.67;100.00
8641;BME280;4358;42.100;25.222;2023-03-05T08:07:14;99628.25;;;9.87;100.00
8641;BME280;4358;42.100;25.222;2023-03-05T08:09:41;99625.06;;;9.82;100.00
8641;BME280;4358;42.100;25.222;2023-03-05T08:12:08;99622.75;;;9.90;100.00
8641;BME280;4358;42.100;25.222;2023-03-05T08:14:35;99632.94;;;9.96;100.00
8641;BME280;4358;42.100;25.222;2023-03-05T08:17:03;99631.34;;;10.06;100.00
8641;BME280;4358;42.100;25.222;2023-03-05T08:19:30;99621.91;;;10.02;100.00
8641;BME280;4358;42.100;25.222;2023-03-05T08:21:57;99632.75;;;10.25;100.00
8641;BME280;4358;42.100;25.222;2023-03-05T08:24:26;99629.75;;;10.42;100.00
8641;BME280;4358;42.100;25.222;2023-03-05T08:26:54;99626.47;;;10.51;100.00
8641;BME280;4358;42.100;25.222;2023-03-05T08:29:22;99635.75;;;10.69;100.00
8641;BME280;4358;42.100;25.222;2023-03-05T08:31:49;99638.38;;;10.82;100.00
8641;BME280;4358;42.100;25.222;2023-03-05T08:34:18;99645.31;;;11.08;100.00
8641;BME280;4358;42.100;25.222;2023-03-05T08:36:47;99646.09;;;11.21;100.00
8641;BME280;4358;42.100;25.222;2023-03-05T08:39:14;99642.66;;;11.32;100.00
8641;BME280;4358;42.100;25.222;2023-03-05T08:41:43;99643.91;;;11.39;100.00
8641;BME280;4358;42.100;25.222;2023-03-05T08:44:10;99653.69;;;11.38;100.00
8641;BME280;4358;42.100;25.222;2023-03-05T08:46:37;99639.28;;;11.30;100.00
8641;BME280;4358;42.100;25.222;2023-03-05T08:49:04;99624.84;;;11.21;100.00
8641;BME280;4358;42.100;25.222;2023-03-05T08:51:32;99643.16;;;11.37;100.00
8641;BME280;4358;42.100;25.222;2023-03-05T08:54:00;99633.72;;;11.33;100.00
8641;BME280;4358;42.100;25.222;2023-03-05T08:56:31;99645.50;;;11.53;100.00
8641;BME280;4358;42.100;25.222;2023-03-05T08:58:59;99646.16;;;11.56;100.00
8641;BME280;4358;42.100;25.222;2023-03-05T09:01:27;99637.44;;;11.54;100.00
8641;BME280;4358;42.100;25.222;2023-03-05T09:03:56;99633.97;;;11.65;100.00
8641;BME280;4358;42.100;25.222;2023-03-05T09:06:23;99643.84;;;11.63;100.00
8641;BME280;4358;42.100;25.222;2023-03-05T09:08:50;99647.03;;;11.68;100.00
8641;BME280;4358;42.100;25.222;2023-03-05T09:11:17;99645.63;;;11.75;100.00
8641;BME280;4358;42.100;25.222;2023-03-05T09:13:44;99633.94;;;11.77;100.00
8641;BME280;4358;42.100;25.222;2023-03-05T09:16:14;99635.88;;;11.86;100.00
8641;BME280;4358;42.100;25.222;2023-03-05T09:18:42;99640.06;;;11.78;100.00
8641;BME280;4358;42.100;25.222;2023-03-05T09:21:11;99645.22;;;11.68;100.00
8641;BME280;4358;42.100;25.222;2023-03-05T09:23:38;99648.16;;;11.53;100.00
8641;BME280;4358;42.100;25.222;2023-03-05T09:26:05;99630.66;;;11.50;100.00
8641;BME280;4358;42.100;25.222;2023-03-05T09:28:32;99634.53;;;11.46;100.00
8641;BME280;4358;42.100;25.222;2023-03-05T09:31:01;99638.69;;;11.61;100.00
8641;BME280;4358;42.100;25.222;2023-03-05T09:33:29;99626.69;;;11.56;100.00
8641;BME280;4358;42.100;25.222;2023-03-05T09:35:56;99626.09;;;11.63;100.00
8641;BME280;4358;42.100;25.222;2023-03-05T09:38:23;99630.06;;;11.81;100.00
8641;BME280;4358;42.100;25.222;2023-03-05T09:40:55;99637.22;;;11.92;100.00
8641;BME280;4358;42.100;25.222;2023-03-05T09:43:29;99629.28;;;12.03;100.00
8641;BME280;4358;42.100;25.222;2023-03-05T09:46:08;99627.97;;;12.09;100.00
8641;BME280;4358;42.100;25.222;2023-03-05T09:48:49;99614.91;;;12.28;100.00
8641;BME280;4358;42.100;25.222;2023-03-05T09:51:21;99615.72;;;12.62;100.00
8641;BME280;4358;42.100;25.222;2023-03-05T09:53:52;99616.28;;;12.88;100.00
8641;BME280;4358;42.100;25.222;2023-03-05T09:56:25;99611.97;;;12.76;100.00
8641;BME280;4358;42.100;25.222;2023-03-05T09:58:55;99601.69;;;12.82;100.00
8641;BME280;4358;42.100;25.222;2023-03-05T10:01:28;99597.13;;;13.05;100.00
8641;BME280;4358;42.100;25.222;2023-03-05T10:04:03;99595.81;;;13.42;100.00
8641;BME280;4358;42.100;25.222;2023-03-05T10:06:35;99595.97;;;13.82;100.00
8641;BME280;4358;42.100;25.222;2023-03-05T10:09:12;99583.28;;;13.95;100.00
8641;BME280;4358;42.100;25.222;2023-03-05T10:11:45;99577.88;;;13.86;100.00
8641;BME280;4358;42.100;25.222;2023-03-05T10:14:25;99573.88;;;13.71;100.00
8641;BME280;4358;42.100;25.222;2023-03-05T10:17:15;99562.19;;;13.51;100.00
8641;BME280;4358;42.100;25.222;2023-03-05T10:20:13;99563.38;;;13.37;100.00
8641;BME280;4358;42.100;25.222;2023-03-05T10:22:55;99541.88;;;13.29;100.00
8641;BME280;4358;42.100;25.222;2023-03-05T10:25:38;99550.22;;;13.25;100.00
8641;BME280;4358;42.100;25.222;2023-03-05T10:28:11;99540.56;;;13.44;100.00
8641;BME280;4358;42.100;25.222;2023-03-05T10:30:55;99538.66;;;13.56;100.00
8641;BME280;4358;42.100;25.222;2023-03-05T10:33:33;99530.66;;;13.35;100.00
8641;BME280;4358;42.100;25.222;2023-03-05T10:36:30;99522.47;;;13.48;100.00
8641;BME280;4358;42.100;25.222;2023-03-05T10:39:19;99518.47;;;13.33;100.00
8641;BME280;4358;42.100;25.222;2023-03-05T10:41:55;99515.66;;;13.34;100.00
8641;BME280;4358;42.100;25.222;2023-03-05T10:44:34;99523.13;;;13.40;100.00
8641;BME280;4358;42.100;25.222;2023-03-05T10:47:02;99518.41;;;13.44;100.00
8641;BME280;4358;42.100;25.222;2023-03-05T10:49:46;99502.41;;;13.44;100.00
8641;BME280;4358;42.100;25.222;2023-03-05T10:52:17;99510.25;;;13.45;100.00
8641;BME280;4358;42.100;25.222;2023-03-05T10:54:44;99493.81;;;13.40;100.00
8641;BME280;4358;42.100;25.222;2023-03-05T10:57:19;99493.09;;;13.38;100.00
8641;BME280;4358;42.100;25.222;2023-03-05T10:59:49;99485.81;;;13.40;100.00
8641;BME280;4358;42.100;25.222;2023-03-05T11:02:18;99485.81;;;13.40;100.00
8641;BME280;4358;42.100;25.222;2023-03-05T11:04:45;99481.38;;;13.50;100.00
8641;BME280;4358;42.100;25.222;2023-03-05T11:07:32;99471.25;;;13.44;100.00
8641;BME280;4358;42.100;25.222;2023-03-05T11:10:14;99463.41;;;13.22;100.00
8641;BME280;4358;42.100;25.222;2023-03-05T11:12:44;99465.28;;;13.31;100.00
8641;BME280;4358;42.100;25.222;2023-03-05T11:15:28;99465.53;;;13.28;100.00
8641;BME280;4358;42.100;25.222;2023-03-05T11:18:19;99457.09;;;13.23;100.00
8641;BME280;4358;42.100;25.222;2023-03-05T11:20:48;99450.66;;;13.26;100.00
8641;BME280;4358;42.100;25.222;2023-03-05T11:23:18;99452.69;;;13.33;100.00
8641;BME280;4358;42.100;25.222;2023-03-05T11:26:03;99448.25;;;13.43;100.00
8641;BME280;4358;42.100;25.222;2023-03-05T11:28:33;99445.38;;;13.35;100.00
8641;BME280;4358;42.100;25.222;2023-03-05T11:31:05;99437.91;;;13.50;100.00
8641;BME280;4358;42.100;25.222;2023-03-05T11:33:34;99434.88;;;13.64;100.00
8641;BME280;4358;42.100;25.222;2023-03-05T11:36:19;99432.69;;;13.79;100.00
8641;BME280;4358;42.100;25.222;2023-03-05T11:38:52;99428.41;;;13.97;100.00
8641;BME280;4358;42.100;25.222;2023-03-05T11:41:23;99435.09;;;14.22;100.00
8641;BME280;4358;42.100;25.222;2023-03-05T11:43:52;99429.31;;;14.26;100.00
8641;BME280;4358;42.100;25.222;2023-03-05T11:46:20;99424.72;;;14.28;100.00
8641;BME280;4358;42.100;25.222;2023-03-05T11:48:48;99416.63;;;14.09;100.00
8641;BME280;4358;42.100;25.222;2023-03-05T11:51:18;99421.53;;;14.04;100.00
8641;BME280;4358;42.100;25.222;2023-03-05T11:53:50;99420.34;;;14.27;100.00
8641;BME280;4358;42.100;25.222;2023-03-05T11:56:25;99406.72;;;14.30;100.00
8641;BME280;4358;42.100;25.222;2023-03-05T11:58:57;99375.22;;;14.24;100.00
8641;BME280;4358;42.100;25.222;2023-03-05T12:01:28;99408.44;;;14.51;100.00
8641;BME280;4358;42.100;25.222;2023-03-05T12:03:57;99398.19;;;14.46;100.00
8641;BME280;4358;42.100;25.222;2023-03-05T12:06:28;99403.09;;;14.60;100.00
8641;BME280;4358;42.100;25.222;2023-03-05T12:09:03;99405.94;;;14.59;100.00
8641;BME280;4358;42.100;25.222;2023-03-05T12:11:33;99405.81;;;14.70;100.00
8641;BME280;4358;42.100;25.222;2023-03-05T12:14:05;99390.47;;;14.53;100.00
8641;BME280;4358;42.100;25.222;2023-03-05T12:16:38;99408.47;;;14.70;100.00
8641;BME280;4358;42.100;25.222;2023-03-05T12:19:23;99402.84;;;14.73;100.00
8641;BME280;4358;42.100;25.222;2023-03-05T12:21:55;99392.59;;;14.68;100.00
8641;BME280;4358;42.100;25.222;2023-03-05T12:24:35;99388.63;;;14.82;100.00
8641;BME280;4358;42.100;25.222;2023-03-05T12:27:13;99394.66;;;14.94;100.00
8641;BME280;4358;42.100;25.222;2023-03-05T12:29:46;99382.56;;;14.99;100.00
8641;BME280;4358;42.100;25.222;2023-03-05T12:35:25;99381.41;;;15.21;100.00
8641;BME280;4358;42.100;25.222;2023-03-05T12:38:03;99376.59;;;15.24;100.00
8641;BME280;4358;42.100;25.222;2023-03-05T12:40:33;99373.53;;;15.19;100.00
8641;BME280;4358;42.100;25.222;2023-03-05T12:43:01;99379.44;;;15.13;100.00
8641;BME280;4358;42.100;25.222;2023-03-05T12:45:36;99372.16;;;15.06;100.00
8641;BME280;4358;42.100;25.222;2023-03-05T12:48:42;99360.34;;;14.99;100.00
8641;BME280;4358;42.100;25.222;2023-03-05T12:51:14;99355.78;;;15.18;100.00
8641;BME280;4358;42.100;25.222;2023-03-05T12:53:53;99347.38;;;15.13;100.00
8641;BME280;4358;42.100;25.222;2023-03-05T12:56:25;99346.28;;;15.06;100.00
8641;BME280;4358;42.100;25.222;2023-03-05T12:58:57;99345.31;;;14.88;100.00
8641;BME280;4358;42.100;25.222;2023-03-05T13:01:39;99347.84;;;14.99;99.96
8641;BME280;4358;42.100;25.222;2023-03-05T13:04:14;99340.53;;;15.01;100.00
8641;BME280;4358;42.100;25.222;2023-03-05T13:06:44;99337.56;;;15.04;100.00
8641;BME280;4358;42.100;25.222;2023-03-05T13:09:16;99347.94;;;15.07;100.00
8641;BME280;4358;42.100;25.222;2023-03-05T13:11:46;99343.84;;;15.13;99.10
8641;BME280;4358;42.100;25.222;2023-03-05T13:14:38;99341.84;;;15.24;99.00
8641;BME280;4358;42.100;25.222;2023-03-05T13:17:30;99341.22;;;15.40;98.25
8641;BME280;4358;42.100;25.222;2023-03-05T13:19:59;99329.34;;;15.62;97.85
8641;BME280;4358;42.100;25.222;2023-03-05T13:22:27;99326.69;;;15.62;96.17
8641;BME280;4358;42.100;25.222;2023-03-05T13:25:21;99338.97;;;15.45;96.94